Time;durP1;ratioP1;P1;durP2;ratioP2;P2;SDS_P1;SDS_P2;PMS_P1;PMS_P2;Temp;Humidity;BMP_temperature;BMP_pressure;BME280_temperature;BME280_humidity;BME280_pressure;Samples;Min_cycle;Max_cycle;Signal;HPM_P1;HPM_P2
2023/02/20 00:02:03;;;;;;;;;40.00;31.00;;;;;;;;5031439;28;11510;-78
2023/02/20 00:04:32;;;;;;;;;41.50;37.25;;;;;;;;5026776;28;11556;-77
2023/02/20 00:07:00;;;;;;;;;38.25;32.25;;;;;;;;5017552;28;12388;-79
2023/02/20 00:09:28;;;;;;;;;43.00;36.50;;;;;;;;5029656;28;11671;-78
2023/02/20 00:11:56;;;;;;;;;36.00;27.50;;;;;;;;5042549;28;11578;-79
2023/02/20 00:14:23;;;;;;;;;41.75;36.50;;;;;;;;5041372;28;11549;-79
2023/02/20 00:16:51;;;;;;;;;38.50;37.25;;;;;;;;5049741;28;11506;-78
2023/02/20 00:19:20;;;;;;;;;44.50;38.25;;;;;;;;5052061;28;11596;-79
2023/02/20 00:21:48;;;;;;;;;32.25;29.25;;;;;;;;5047964;28;11563;-78
2023/02/20 00:24:16;;;;;;;;;40.00;32.50;;;;;;;;5031982;28;12360;-79
2023/02/20 00:26:47;;;;;;;;;41.50;34.75;;;;;;;;5024925;28;11541;-78
2023/02/20 00:29:17;;;;;;;;;31.25;27.75;;;;;;;;5044975;28;12450;-78
2023/02/20 00:31:50;;;;;;;;;33.25;30.00;;;;;;;;5027728;28;11527;-79
2023/02/20 00:34:19;;;;;;;;;42.00;36.50;;;;;;;;5048772;28;11529;-78
2023/02/20 00:36:46;;;;;;;;;41.50;38.25;;;;;;;;5049773;28;11550;-79
2023/02/20 00:39:18;;;;;;;;;39.50;35.25;;;;;;;;5047827;28;12292;-79
2023/02/20 00:41:46;;;;;;;;;39.50;34.00;;;;;;;;5051244;28;11565;-78
2023/02/20 00:44:13;;;;;;;;;38.25;31.25;;;;;;;;5030383;28;11555;-79
2023/02/20 00:46:41;;;;;;;;;39.75;35.75;;;;;;;;5014913;28;11702;-78
2023/02/20 00:49:08;;;;;;;;;44.50;37.00;;;;;;;;5047485;28;11571;-79
2023/02/20 00:51:37;;;;;;;;;41.50;40.25;;;;;;;;5032771;28;11604;-77
2023/02/20 00:54:05;;;;;;;;;54.75;41.00;;;;;;;;5043814;28;11560;-81
2023/02/20 00:56:33;;;;;;;;;47.25;41.25;;;;;;;;5042340;28;11573;-78
2023/02/20 00:59:02;;;;;;;;;46.25;38.75;;;;;;;;5046073;28;12332;-80
2023/02/20 01:01:30;;;;;;;;;47.50;38.75;;;;;;;;5053590;28;11547;-77
2023/02/20 01:03:58;;;;;;;;;41.25;38.25;;;;;;;;5028956;28;11673;-78
2023/02/20 01:06:26;;;;;;;;;37.50;34.75;;;;;;;;5035029;28;11547;-77
2023/02/20 01:08:55;;;;;;;;;46.75;37.25;;;;;;;;5028911;28;11609;-77
2023/02/20 01:11:23;;;;;;;;;51.00;40.50;;;;;;;;5045635;28;11535;-77
2023/02/20 01:13:50;;;;;;;;;49.25;42.25;;;;;;;;5033606;28;11569;-78
2023/02/20 01:16:18;;;;;;;;;38.50;35.00;;;;;;;;5043924;28;11554;-78
2023/02/20 01:18:48;;;;;;;;;46.25;36.00;;;;;;;;5045490;28;12342;-77
2023/02/20 01:21:17;;;;;;;;;36.50;33.50;;;;;;;;5052040;28;11552;-79
2023/02/20 01:23:45;;;;;;;;;42.75;39.00;;;;;;;;5049781;28;12310;-77
2023/02/20 01:26:14;;;;;;;;;48.75;40.25;;;;;;;;5048380;28;11552;-77
2023/02/20 01:28:44;;;;;;;;;42.25;39.00;;;;;;;;5045985;28;11566;-76
2023/02/20 01:31:11;;;;;;;;;31.00;28.75;;;;;;;;5010808;28;11494;-77
2023/02/20 01:33:42;;;;;;;;;40.75;38.25;;;;;;;;5047699;28;11564;-78
2023/02/20 01:36:11;;;;;;;;;44.25;37.00;;;;;;;;5030184;28;11568;-78
2023/02/20 01:38:40;;;;;;;;;49.50;43.00;;;;;;;;5036341;28;11554;-77
2023/02/20 01:41:08;;;;;;;;;44.25;39.50;;;;;;;;5045296;28;11528;-78
2023/02/20 01:43:37;;;;;;;;;46.00;37.00;;;;;;;;5028632;28;11570;-77
2023/02/20 01:46:50;;;;;;;;;39.00;36.00;;;;;;;;5028911;28;11558;-78
2023/02/20 01:49:23;;;;;;;;;44.50;39.00;;;;;;;;5028637;28;11558;-76
2023/02/20 01:51:56;;;;;;;;;43.00;39.33;;;;;;;;5049266;28;12353;-77
2023/02/20 01:54:25;;;;;;;;;35.25;34.50;;;;;;;;5044202;28;12791;-78
2023/02/20 01:56:54;;;;;;;;;44.50;39.00;;;;;;;;5004524;28;11655;-78
2023/02/20 01:59:24;;;;;;;;;47.25;39.00;;;;;;;;5042569;28;11534;-78
2023/02/20 02:01:52;;;;;;;;;34.25;30.50;;;;;;;;5040806;28;11510;-77
2023/02/20 02:04:20;;;;;;;;;38.25;38.00;;;;;;;;5044057;28;11540;-77
2023/02/20 02:06:50;;;;;;;;;39.25;32.00;;;;;;;;5049555;28;12369;-77
2023/02/20 02:09:24;;;;;;;;;45.00;38.75;;;;;;;;5027181;28;11591;-77
2023/02/20 02:11:52;;;;;;;;;36.25;31.75;;;;;;;;5024829;28;11653;-77
2023/02/20 02:14:20;;;;;;;;;39.00;36.50;;;;;;;;5029129;28;11602;-77
2023/02/20 02:16:57;;;;;;;;;40.50;33.75;;;;;;;;5022693;28;11564;-77
2023/02/20 02:19:46;;;;;;;;;36.25;33.25;;;;;;;;5043435;28;11534;-77
2023/02/20 02:22:38;;;;;;;;;38.00;35.75;;;;;;;;5048698;28;11525;-77
2023/02/20 02:25:21;;;;;;;;;38.50;34.25;;;;;;;;5042313;28;11561;-78
2023/02/20 02:28:13;;;;;;;;;33.25;32.25;;;;;;;;5043202;28;11566;-77
2023/02/20 02:30:52;;;;;;;;;51.25;40.50;;;;;;;;5042421;28;11522;-78
2023/02/20 02:33:47;;;;;;;;;44.75;35.75;;;;;;;;5027071;28;11708;-77
2023/02/20 02:36:47;;;;;;;;;33.75;27.00;;;;;;;;5043843;28;11554;-77
2023/02/20 02:39:19;;;;;;;;;39.00;29.75;;;;;;;;4971002;28;11575;-77
2023/02/20 02:41:52;;;;;;;;;32.00;30.25;;;;;;;;5044359;28;11552;-78
2023/02/20 02:44:26;;;;;;;;;27.00;27.00;;;;;;;;5045789;28;12817;-78
2023/02/20 02:46:57;;;;;;;;;32.00;29.00;;;;;;;;5027672;28;11699;-77
2023/02/20 02:49:29;;;;;;;;;18.75;15.00;;;;;;;;5045786;28;11550;-78
2023/02/20 02:52:00;;;;;;;;;25.50;23.25;;;;;;;;5046734;28;11478;-77
2023/02/20 02:54:29;;;;;;;;;21.50;20.25;;;;;;;;5043012;28;11528;-77
2023/02/20 02:57:19;;;;;;;;;28.75;22.75;;;;;;;;5039909;28;11535;-77
2023/02/20 02:59:49;;;;;;;;;23.25;20.25;;;;;;;;5036771;28;11554;-77
2023/02/20 03:02:19;;;;;;;;;18.50;16.00;;;;;;;;5020096;28;11479;-78
2023/02/20 03:04:49;;;;;;;;;25.25;20.50;;;;;;;;5041574;28;11518;-77
2023/02/20 03:07:20;;;;;;;;;34.75;23.75;;;;;;;;5023731;28;11012;-77
2023/02/20 03:09:50;;;;;;;;;18.75;18.75;;;;;;;;5029562;28;11526;-81
2023/02/20 03:12:19;;;;;;;;;21.50;18.00;;;;;;;;5040551;28;11583;-77
2023/02/20 03:17:38;;;;;;;;;22.25;20.75;;;;;;;;5048632;28;11555;-77
2023/02/20 03:20:09;;;;;;;;;18.50;15.75;;;;;;;;5023316;28;11585;-78
2023/02/20 03:22:42;;;;;;;;;17.25;15.50;;;;;;;;5043924;28;12308;-77
2023/02/20 03:25:12;;;;;;;;;18.00;16.00;;;;;;;;5045982;28;11605;-78
2023/02/20 03:27:43;;;;;;;;;22.00;16.25;;;;;;;;5024632;28;11505;-77
2023/02/20 03:30:15;;;;;;;;;15.50;14.25;;;;;;;;5045209;28;11565;-77
2023/02/20 03:43:51;;;;;;;;;18.00;17.50;;;;;;;;5031891;28;12772;-77
2023/02/20 03:46:22;;;;;;;;;25.25;23.25;;;;;;;;5029137;28;11510;-77
2023/02/20 03:48:53;;;;;;;;;24.25;24.25;;;;;;;;5042923;28;12790;-77
2023/02/20 03:51:21;;;;;;;;;22.00;16.75;;;;;;;;5047299;28;12810;-78
2023/02/20 03:53:50;;;;;;;;;31.50;26.00;;;;;;;;5044515;28;11635;-78
2023/02/20 03:56:21;;;;;;;;;30.00;26.00;;;;;;;;5048944;28;11556;-77
2023/02/20 03:58:52;;;;;;;;;24.50;24.50;;;;;;;;5051197;28;11496;-77
2023/02/20 04:01:23;;;;;;;;;27.75;27.00;;;;;;;;5049779;28;11507;-78
2023/02/20 04:03:51;;;;;;;;;30.50;23.50;;;;;;;;5045524;28;11507;-77
2023/02/20 04:06:20;;;;;;;;;24.75;24.75;;;;;;;;5046642;28;11530;-78
2023/02/20 04:08:54;;;;;;;;;22.25;22.25;;;;;;;;5049828;28;11528;-77
2023/02/20 04:11:24;;;;;;;;;26.75;26.00;;;;;;;;5029453;28;11576;-78
2023/02/20 04:13:53;;;;;;;;;15.75;15.75;;;;;;;;5049273;28;11551;-78
2023/02/20 04:16:22;;;;;;;;;32.00;25.50;;;;;;;;5044788;28;11545;-78
2023/02/20 04:18:49;;;;;;;;;25.75;21.75;;;;;;;;5006743;28;12160;-77
2023/02/20 04:21:21;;;;;;;;;31.75;28.00;;;;;;;;5045351;28;11542;-78
2023/02/20 04:23:58;;;;;;;;;30.50;28.25;;;;;;;;5025169;28;11605;-78
2023/02/20 04:26:25;;;;;;;;;26.50;23.75;;;;;;;;5048779;28;12420;-78
2023/02/20 04:28:53;;;;;;;;;23.50;23.50;;;;;;;;5047937;28;11564;-78
2023/02/20 04:31:22;;;;;;;;;33.75;24.75;;;;;;;;5048047;28;11510;-77
2023/02/20 04:33:50;;;;;;;;;28.50;24.25;;;;;;;;5012269;28;11545;-76
2023/02/20 04:36:17;;;;;;;;;32.75;28.75;;;;;;;;5028754;28;11670;-78
2023/02/20 04:38:44;;;;;;;;;29.25;26.50;;;;;;;;5044043;28;12476;-78
2023/02/20 04:41:14;;;;;;;;;36.00;28.25;;;;;;;;5049627;28;11537;-77
2023/02/20 04:43:41;;;;;;;;;30.75;27.25;;;;;;;;5047702;28;11544;-77
2023/02/20 04:46:09;;;;;;;;;29.75;25.00;;;;;;;;5026821;28;11571;-77
2023/02/20 04:48:36;;;;;;;;;26.25;25.00;;;;;;;;5026197;28;11525;-78
2023/02/20 04:51:04;;;;;;;;;30.75;28.25;;;;;;;;5041897;28;11544;-77
2023/02/20 04:53:31;;;;;;;;;28.75;26.75;;;;;;;;5039530;28;11514;-77
2023/02/20 04:55:59;;;;;;;;;33.50;28.75;;;;;;;;5023984;28;11657;-78
2023/02/20 04:58:28;;;;;;;;;31.75;30.25;;;;;;;;5025674;28;11540;-81
2023/02/20 05:00:55;;;;;;;;;33.25;32.25;;;;;;;;5042286;28;11655;-79
2023/02/20 05:03:23;;;;;;;;;52.00;40.00;;;;;;;;5028184;28;11558;-79
2023/02/20 05:05:50;;;;;;;;;44.50;39.00;;;;;;;;5039619;28;11564;-80
2023/02/20 05:08:18;;;;;;;;;34.25;34.25;;;;;;;;5024998;28;11548;-79
2023/02/20 05:10:47;;;;;;;;;53.50;40.00;;;;;;;;5042932;28;11510;-79
2023/02/20 05:13:15;;;;;;;;;30.00;26.00;;;;;;;;5026453;28;12248;-78
2023/02/20 05:15:44;;;;;;;;;44.00;32.25;;;;;;;;5044331;28;11564;-79
2023/02/20 05:18:12;;;;;;;;;26.00;26.00;;;;;;;;5009050;28;11544;-78
2023/02/20 05:23:24;;;;;;;;;37.50;28.25;;;;;;;;5041042;28;12307;-78
2023/02/20 05:25:53;;;;;;;;;34.75;29.75;;;;;;;;5023452;28;11537;-78
2023/02/20 05:28:21;;;;;;;;;35.75;30.00;;;;;;;;5024789;28;11564;-78
2023/02/20 05:30:50;;;;;;;;;34.25;30.75;;;;;;;;5046010;28;11533;-78
2023/02/20 05:33:18;;;;;;;;;39.75;34.00;;;;;;;;5025753;28;11699;-79
2023/02/20 05:35:46;;;;;;;;;33.00;24.75;;;;;;;;5041766;28;12430;-79
2023/02/20 05:38:18;;;;;;;;;29.75;26.75;;;;;;;;5008699;28;11566;-77
2023/02/20 05:40:46;;;;;;;;;28.50;24.75;;;;;;;;5044050;28;11553;-79
2023/02/20 05:43:13;;;;;;;;;32.75;31.25;;;;;;;;5029709;28;11529;-79
2023/02/20 05:45:41;;;;;;;;;29.00;28.00;;;;;;;;5044846;28;11564;-77
2023/02/20 05:48:12;;;;;;;;;29.00;25.50;;;;;;;;5047200;28;12239;-79
2023/02/20 05:50:39;;;;;;;;;36.50;31.25;;;;;;;;5045115;28;11551;-79
2023/02/20 05:53:07;;;;;;;;;37.50;28.25;;;;;;;;5008536;28;11592;-79
2023/02/20 05:55:34;;;;;;;;;27.75;26.00;;;;;;;;5045733;28;11565;-78
2023/02/20 05:58:02;;;;;;;;;22.00;21.00;;;;;;;;5030080;28;11560;-78
2023/02/20 06:00:29;;;;;;;;;25.25;19.00;;;;;;;;5042255;28;11477;-77
2023/02/20 06:02:57;;;;;;;;;28.25;24.25;;;;;;;;5046878;28;11538;-79
2023/02/20 06:05:27;;;;;;;;;34.75;32.50;;;;;;;;5042797;28;11567;-78
2023/02/20 06:07:54;;;;;;;;;37.25;29.00;;;;;;;;5044044;28;11543;-78
2023/02/20 06:10:22;;;;;;;;;35.25;30.00;;;;;;;;5018377;28;12426;-78
2023/02/20 06:12:50;;;;;;;;;36.25;33.00;;;;;;;;5027009;28;11601;-79
2023/02/20 06:15:18;;;;;;;;;31.25;27.75;;;;;;;;5026834;28;11557;-79
2023/02/20 06:17:45;;;;;;;;;28.75;26.50;;;;;;;;5043879;28;11523;-78
2023/02/20 06:20:13;;;;;;;;;33.00;33.00;;;;;;;;5041732;28;11611;-76
2023/02/20 06:22:42;;;;;;;;;34.25;27.25;;;;;;;;5019485;28;11552;-76
2023/02/20 06:25:10;;;;;;;;;35.00;30.00;;;;;;;;5024476;28;11755;-77
2023/02/20 06:27:42;;;;;;;;;31.00;28.25;;;;;;;;5040846;28;11543;-77
2023/02/20 06:30:10;;;;;;;;;41.25;35.00;;;;;;;;5043808;28;11556;-77
2023/02/20 06:32:38;;;;;;;;;34.75;29.00;;;;;;;;5045931;28;11539;-77
2023/02/20 06:35:06;;;;;;;;;40.00;34.50;;;;;;;;5039012;28;11673;-83
2023/02/20 06:37:34;;;;;;;;;37.75;32.50;;;;;;;;5039980;28;11560;-80
2023/02/20 06:40:04;;;;;;;;;46.00;37.50;;;;;;;;5044851;28;12938;-79
2023/02/20 06:42:32;;;;;;;;;46.50;40.00;;;;;;;;5044217;28;11597;-80
2023/02/20 06:45:00;;;;;;;;;42.25;36.00;;;;;;;;5043103;28;11560;-79
2023/02/20 06:47:27;;;;;;;;;40.50;35.75;;;;;;;;5018990;28;11574;-79
2023/02/20 06:49:55;;;;;;;;;32.50;30.75;;;;;;;;5020935;28;11562;-79
2023/02/20 06:52:22;;;;;;;;;42.25;36.75;;;;;;;;5032403;28;11568;-79
2023/02/20 06:54:52;;;;;;;;;42.00;32.00;;;;;;;;5046012;28;11018;-80
2023/02/20 06:57:22;;;;;;;;;34.00;28.50;;;;;;;;5009404;28;11569;-80
2023/02/20 06:59:49;;;;;;;;;25.50;23.75;;;;;;;;5025014;28;11544;-79
2023/02/20 07:02:18;;;;;;;;;32.50;27.00;;;;;;;;5021984;28;11526;-79
2023/02/20 07:04:49;;;;;;;;;27.25;25.75;;;;;;;;5045047;28;11530;-79
2023/02/20 07:07:18;;;;;;;;;25.00;21.25;;;;;;;;5044167;28;11592;-79
2023/02/20 07:09:46;;;;;;;;;27.25;25.50;;;;;;;;5046681;28;11729;-79
2023/02/20 07:12:14;;;;;;;;;27.00;27.00;;;;;;;;5023879;28;12375;-79
2023/02/20 07:14:43;;;;;;;;;23.50;20.25;;;;;;;;5028665;28;11567;-80
2023/02/20 07:17:10;;;;;;;;;18.50;16.50;;;;;;;;5020953;28;11563;-79
2023/02/20 07:19:38;;;;;;;;;23.75;23.75;;;;;;;;5041377;28;12308;-81
2023/02/20 07:22:06;;;;;;;;;23.00;22.75;;;;;;;;5022923;28;11623;-79
2023/02/20 07:24:35;;;;;;;;;25.25;22.25;;;;;;;;5024831;28;11575;-79
2023/02/20 07:27:03;;;;;;;;;21.50;16.50;;;;;;;;5024350;28;11523;-73
2023/02/20 07:29:30;;;;;;;;;19.75;19.00;;;;;;;;5033330;28;11555;-70
2023/02/20 07:31:59;;;;;;;;;26.25;22.00;;;;;;;;5040071;28;11507;-70
2023/02/20 07:34:27;;;;;;;;;21.00;20.00;;;;;;;;5041284;28;11543;-71
2023/02/20 07:36:54;;;;;;;;;25.25;23.00;;;;;;;;5041472;28;11546;-70
2023/02/20 07:39:21;;;;;;;;;30.50;24.75;;;;;;;;5045054;28;11574;-70
2023/02/20 07:41:51;;;;;;;;;27.50;25.50;;;;;;;;5044397;28;11539;-72
2023/02/20 07:44:19;;;;;;;;;14.00;14.00;;;;;;;;5029026;28;12389;-71
2023/02/20 07:46:46;;;;;;;;;24.75;22.75;;;;;;;;5048208;28;11640;-69
2023/02/20 07:49:15;;;;;;;;;29.75;21.50;;;;;;;;5042484;28;11601;-70
2023/02/20 07:51:42;;;;;;;;;26.25;26.25;;;;;;;;5045452;28;11559;-70
2023/02/20 07:54:10;;;;;;;;;16.50;16.25;;;;;;;;5047326;28;11533;-70
2023/02/20 07:56:37;;;;;;;;;21.00;21.00;;;;;;;;5049890;28;11608;-71
2023/02/20 07:59:04;;;;;;;;;23.00;21.25;;;;;;;;5048522;28;11547;-70
2023/02/20 08:01:32;;;;;;;;;24.75;20.75;;;;;;;;5050920;28;11566;-68
2023/02/20 08:03:59;;;;;;;;;23.00;22.00;;;;;;;;5030262;28;11545;-70
2023/02/20 08:06:28;;;;;;;;;19.00;17.75;;;;;;;;5060091;28;11538;-70
2023/02/20 08:08:56;;;;;;;;;29.50;26.00;;;;;;;;5043296;28;11530;-69
2023/02/20 08:11:24;;;;;;;;;32.00;21.75;;;;;;;;5039865;28;11602;-68
2023/02/20 08:13:54;;;;;;;;;28.00;26.00;;;;;;;;5031573;28;11571;-69
2023/02/20 08:16:22;;;;;;;;;30.75;24.25;;;;;;;;5027739;28;11667;-69
2023/02/20 08:18:49;;;;;;;;;27.00;22.25;;;;;;;;5011122;28;11633;-70
2023/02/20 08:21:17;;;;;;;;;26.00;22.50;;;;;;;;5044849;28;11587;-70
2023/02/20 08:23:46;;;;;;;;;21.75;20.50;;;;;;;;5042774;28;11569;-70
2023/02/20 08:26:13;;;;;;;;;16.75;13.75;;;;;;;;5023493;28;12268;-69
2023/02/20 08:28:41;;;;;;;;;19.50;18.25;;;;;;;;5043306;28;11540;-70
2023/02/20 08:31:08;;;;;;;;;22.50;21.25;;;;;;;;5036610;28;11501;-70
2023/02/20 08:33:36;;;;;;;;;23.75;18.25;;;;;;;;5048938;28;11540;-70
2023/02/20 08:36:04;;;;;;;;;19.00;19.00;;;;;;;;5012176;28;11567;-70
2023/02/20 08:38:33;;;;;;;;;21.25;16.25;;;;;;;;5047385;28;12385;-70
2023/02/20 08:41:06;;;;;;;;;26.00;18.25;;;;;;;;5044889;28;12298;-69
2023/02/20 08:43:33;;;;;;;;;12.00;12.00;;;;;;;;5041882;28;11534;-69
2023/02/20 08:46:00;;;;;;;;;19.25;13.50;;;;;;;;5043311;28;11547;-69
2023/02/20 08:48:28;;;;;;;;;16.00;14.75;;;;;;;;5049030;28;11542;-68
2023/02/20 08:50:56;;;;;;;;;16.00;14.25;;;;;;;;5042139;28;11646;-69
2023/02/20 08:53:23;;;;;;;;;22.00;19.25;;;;;;;;5026899;28;11554;-69
2023/02/20 08:55:51;;;;;;;;;24.25;20.00;;;;;;;;5043524;28;11535;-70
2023/02/20 08:58:21;;;;;;;;;19.25;19.25;;;;;;;;5045202;28;12383;-70
2023/02/20 09:00:49;;;;;;;;;21.50;20.75;;;;;;;;5048479;28;11467;-69
2023/02/20 09:03:17;;;;;;;;;31.75;25.75;;;;;;;;5024535;28;11534;-71
2023/02/20 09:05:45;;;;;;;;;29.25;26.25;;;;;;;;5043159;28;11549;-69
2023/02/20 09:08:12;;;;;;;;;24.25;22.00;;;;;;;;5046807;28;11535;-69
2023/02/20 09:10:40;;;;;;;;;32.00;26.00;;;;;;;;5038925;28;11529;-70
2023/02/20 09:13:07;;;;;;;;;26.75;21.00;;;;;;;;5022802;28;11542;-70
2023/02/20 09:15:38;;;;;;;;;24.50;20.75;;;;;;;;5028860;28;11566;-69
2023/02/20 09:18:08;;;;;;;;;19.00;19.00;;;;;;;;5047541;28;11605;-69
2023/02/20 09:20:36;;;;;;;;;31.25;23.25;;;;;;;;5046596;28;11541;-69
2023/02/20 09:23:04;;;;;;;;;16.50;15.25;;;;;;;;5046155;28;11555;-71
2023/02/20 09:25:32;;;;;;;;;24.00;22.00;;;;;;;;5043518;28;11525;-70
2023/02/20 09:28:00;;;;;;;;;26.75;24.25;;;;;;;;5046426;28;11545;-72
2023/02/20 09:30:30;;;;;;;;;29.00;25.50;;;;;;;;5039249;28;11614;-70
2023/02/20 09:32:59;;;;;;;;;22.50;18.25;;;;;;;;5047165;28;11659;-72
2023/02/20 09:35:28;;;;;;;;;22.00;20.00;;;;;;;;5041474;28;11548;-71
2023/02/20 09:37:55;;;;;;;;;24.50;23.00;;;;;;;;5041323;28;11584;-72
2023/02/20 09:40:24;;;;;;;;;23.25;21.75;;;;;;;;5045530;28;11661;-71
2023/02/20 09:43:12;;;;;;;;;27.00;23.75;;;;;;;;5026598;28;11547;-71
2023/02/20 09:45:43;;;;;;;;;29.25;20.25;;;;;;;;5021985;28;12438;-71
2023/02/20 09:48:23;;;;;;;;;23.25;20.75;;;;;;;;5041550;28;11550;-72
2023/02/20 09:50:55;;;;;;;;;22.50;22.00;;;;;;;;5041244;28;11513;-70
2023/02/20 09:53:25;;;;;;;;;23.25;23.25;;;;;;;;5038961;28;11539;-71
2023/02/20 09:55:53;;;;;;;;;30.25;27.00;;;;;;;;5044121;28;11561;-71
2023/02/20 09:58:28;;;;;;;;;26.75;26.00;;;;;;;;5051757;28;11556;-71
2023/02/20 10:01:00;;;;;;;;;24.75;24.50;;;;;;;;5034420;28;11518;-71
2023/02/20 10:03:36;;;;;;;;;26.75;23.00;;;;;;;;5043110;28;11720;-70
2023/02/20 10:06:05;;;;;;;;;23.50;23.50;;;;;;;;5019384;28;11567;-71
2023/02/20 10:08:32;;;;;;;;;20.25;18.50;;;;;;;;5049506;28;11544;-70
2023/02/20 10:11:04;;;;;;;;;29.75;29.50;;;;;;;;5044752;28;11657;-70
2023/02/20 10:13:53;;;;;;;;;22.00;20.50;;;;;;;;5041731;28;12434;-70
2023/02/20 10:16:32;;;;;;;;;23.00;20.50;;;;;;;;5037655;28;11586;-70
2023/02/20 10:19:14;;;;;;;;;29.50;23.50;;;;;;;;5039705;28;11517;-69
2023/02/20 10:21:51;;;;;;;;;37.00;28.00;;;;;;;;5046236;28;11534;-69
2023/02/20 10:24:35;;;;;;;;;24.25;20.00;;;;;;;;5046995;28;11481;-70
2023/02/20 10:27:13;;;;;;;;;22.50;21.75;;;;;;;;5043938;28;11484;-69
2023/02/20 10:29:41;;;;;;;;;18.00;14.00;;;;;;;;5039116;28;11508;-69
2023/02/20 10:32:11;;;;;;;;;26.25;23.00;;;;;;;;5008529;28;11444;-70
2023/02/20 10:34:43;;;;;;;;;23.50;21.50;;;;;;;;5021092;28;11561;-67
2023/02/20 10:37:14;;;;;;;;;18.75;15.50;;;;;;;;5040234;28;11611;-70
2023/02/20 10:39:48;;;;;;;;;20.50;18.50;;;;;;;;5049335;28;11476;-69
2023/02/20 10:42:21;;;;;;;;;19.00;19.00;;;;;;;;5051549;28;11678;-69
2023/02/20 10:44:53;;;;;;;;;16.25;15.00;;;;;;;;5042617;28;11621;-70
2023/02/20 10:47:25;;;;;;;;;13.50;13.50;;;;;;;;5042233;28;11672;-69
2023/02/20 10:49:58;;;;;;;;;21.75;14.25;;;;;;;;5022965;28;12309;-69
2023/02/20 10:52:29;;;;;;;;;17.75;14.00;;;;;;;;5048708;28;11498;-72
2023/02/20 10:55:01;;;;;;;;;22.50;21.00;;;;;;;;5042964;28;11689;-69
2023/02/20 10:57:31;;;;;;;;;17.75;17.25;;;;;;;;5034924;28;11464;-69
2023/02/20 11:00:06;;;;;;;;;15.00;15.00;;;;;;;;5046105;28;11663;-68
2023/02/20 11:02:36;;;;;;;;;17.00;17.00;;;;;;;;5050623;28;12222;-70
2023/02/20 11:05:20;;;;;;;;;20.50;20.50;;;;;;;;5036960;28;11487;-70
2023/02/20 11:07:48;;;;;;;;;20.75;20.75;;;;;;;;5025754;28;11371;-71
2023/02/20 11:10:16;;;;;;;;;15.00;15.00;;;;;;;;5046976;28;11297;-68
2023/02/20 11:12:46;;;;;;;;;15.75;13.00;;;;;;;;5040025;28;10972;-70
2023/02/20 11:15:16;;;;;;;;;17.50;16.00;;;;;;;;5017834;28;11009;-70
2023/02/20 11:17:45;;;;;;;;;16.75;15.50;;;;;;;;5040590;28;11931;-70
2023/02/20 11:20:46;;;;;;;;;20.50;16.25;;;;;;;;5037577;28;11814;-70
2023/02/20 11:23:38;;;;;;;;;16.75;12.25;;;;;;;;5031658;28;10873;-70
2023/02/20 11:26:34;;;;;;;;;14.50;13.75;;;;;;;;5039187;28;10788;-71
2023/02/20 11:29:06;;;;;;;;;15.25;12.00;;;;;;;;5029125;28;10832;-69
2023/02/20 11:31:35;;;;;;;;;17.25;14.00;;;;;;;;5037218;28;10729;-71
2023/02/20 11:34:06;;;;;;;;;13.00;13.00;;;;;;;;5021160;28;10661;-71
2023/02/20 11:36:39;;;;;;;;;15.00;11.25;;;;;;;;5043993;28;10558;-70
2023/02/20 11:39:20;;;;;;;;;15.75;14.25;;;;;;;;5009354;28;10765;-71
2023/02/20 11:41:49;;;;;;;;;16.50;15.25;;;;;;;;5039533;28;10535;-69
2023/02/20 11:44:21;;;;;;;;;14.25;10.00;;;;;;;;5044470;28;10825;-70
2023/02/20 11:47:10;;;;;;;;;10.75;9.00;;;;;;;;5046282;28;10427;-71
2023/02/20 11:49:37;;;;;;;;;11.50;11.50;;;;;;;;5037644;28;10427;-71
2023/02/20 11:52:21;;;;;;;;;10.00;10.00;;;;;;;;5037232;28;10338;-70
2023/02/20 11:54:49;;;;;;;;;12.25;10.75;;;;;;;;5036931;28;10304;-69
2023/02/20 11:57:24;;;;;;;;;11.75;10.00;;;;;;;;5035133;28;10113;-70
2023/02/20 11:59:52;;;;;;;;;13.00;13.00;;;;;;;;5041652;28;10087;-71
2023/02/20 12:02:26;;;;;;;;;11.75;11.75;;;;;;;;5023989;28;9967;-71
2023/02/20 12:05:09;;;;;;;;;13.00;12.00;;;;;;;;5036386;28;10009;-71
2023/02/20 12:07:40;;;;;;;;;18.00;14.00;;;;;;;;5045204;28;9686;-71
2023/02/20 12:10:20;;;;;;;;;11.50;10.50;;;;;;;;5036061;28;9560;-71
2023/02/20 12:12:47;;;;;;;;;13.00;10.25;;;;;;;;5035500;28;10214;-70
2023/02/20 12:15:16;;;;;;;;;12.00;12.00;;;;;;;;5039098;28;10261;-73
2023/02/20 12:18:03;;;;;;;;;13.33;13.33;;;;;;;;5044264;28;9309;-70
2023/02/20 12:20:32;;;;;;;;;11.67;11.67;;;;;;;;5022335;28;9464;-70
2023/02/20 12:23:11;;;;;;;;;10.33;10.33;;;;;;;;5043523;28;9988;-69
2023/02/20 12:25:52;;;;;;;;;11.67;11.67;;;;;;;;5042650;28;9288;-72
2023/02/20 12:28:24;;;;;;;;;13.00;10.00;;;;;;;;5045953;28;9325;-71
2023/02/20 12:31:04;;;;;;;;;12.00;12.00;;;;;;;;5046658;28;8881;-72
2023/02/20 12:34:03;;;;;;;;;12.33;11.00;;;;;;;;5042583;28;9892;-71
2023/02/20 12:36:35;;;;;;;;;10.67;10.67;;;;;;;;5040047;28;9098;-71
2023/02/20 12:39:10;;;;;;;;;13.00;10.00;;;;;;;;5045114;28;9799;-71
2023/02/20 12:41:55;;;;;;;;;11.50;11.50;;;;;;;;5043833;28;8950;-72
2023/02/20 12:44:43;;;;;;;;;15.00;12.00;;;;;;;;5042611;28;8878;-71
2023/02/20 12:47:19;;;;;;;;;11.00;9.50;;;;;;;;5031604;28;8838;-68
2023/02/20 12:50:10;;;;;;;;;11.75;10.25;;;;;;;;5036268;28;9577;-71
2023/02/20 12:52:54;;;;;;;;;11.75;10.75;;;;;;;;5010332;28;8948;-71
2023/02/20 12:55:29;;;;;;;;;10.25;10.25;;;;;;;;5033418;28;8864;-71
2023/02/20 12:58:08;;;;;;;;;12.00;12.00;;;;;;;;5040554;28;8867;-70
2023/02/20 13:00:39;;;;;;;;;8.50;8.25;;;;;;;;5017590;28;8795;-70
2023/02/20 13:03:14;;;;;;;;;13.75;12.75;;;;;;;;5034809;28;8816;-70
2023/02/20 13:05:44;;;;;;;;;12.50;11.50;;;;;;;;5036059;28;8830;-70
2023/02/20 13:08:15;;;;;;;;;13.00;13.00;;;;;;;;5035070;28;8850;-71
2023/02/20 13:10:50;;;;;;;;;12.00;11.50;;;;;;;;5040984;28;8882;-70
2023/02/20 13:13:18;;;;;;;;;12.75;11.75;;;;;;;;5035889;28;8933;-70
2023/02/20 13:15:54;;;;;;;;;12.50;12.50;;;;;;;;5037096;28;8977;-70
2023/02/20 13:18:28;;;;;;;;;11.25;9.00;;;;;;;;5039966;28;8843;-71
2023/02/20 13:20:57;;;;;;;;;13.00;11.75;;;;;;;;5041076;28;8835;-71
2023/02/20 13:23:31;;;;;;;;;9.50;7.75;;;;;;;;5041087;28;8851;-71
2023/02/20 13:26:00;;;;;;;;;14.00;14.00;;;;;;;;5044407;28;8866;-70
2023/02/20 13:28:41;;;;;;;;;10.00;10.00;;;;;;;;5044200;28;8907;-71
2023/02/20 13:31:17;;;;;;;;;13.00;13.00;;;;;;;;5044943;28;8795;-71
2023/02/20 13:33:47;;;;;;;;;9.25;9.00;;;;;;;;5039966;28;8846;-70
2023/02/20 13:36:38;;;;;;;;;11.75;11.75;;;;;;;;5041034;28;8858;-70
2023/02/20 13:39:32;;;;;;;;;9.00;9.00;;;;;;;;5025910;28;8997;-71
2023/02/20 13:42:03;;;;;;;;;12.75;10.25;;;;;;;;5043742;28;8850;-71
2023/02/20 13:44:41;;;;;;;;;13.25;13.25;;;;;;;;5041420;28;8869;-71
2023/02/20 13:47:33;;;;;;;;;13.75;12.00;;;;;;;;5045423;28;8865;-71
2023/02/20 13:50:01;;;;;;;;;15.00;13.00;;;;;;;;5046047;28;8843;-70
2023/02/20 13:52:37;;;;;;;;;15.00;15.00;;;;;;;;5045425;28;8823;-70
2023/02/20 13:55:14;;;;;;;;;12.75;12.25;;;;;;;;5039982;28;8873;-71
2023/02/20 13:57:47;;;;;;;;;14.00;14.00;;;;;;;;5038655;28;8943;-71
2023/02/20 14:00:26;;;;;;;;;14.00;14.00;;;;;;;;5046357;28;8985;-71
2023/02/20 14:02:55;;;;;;;;;10.25;8.25;;;;;;;;5042988;28;8910;-70
2023/02/20 14:05:26;;;;;;;;;15.50;14.25;;;;;;;;5041241;28;8855;-71
2023/02/20 14:07:53;;;;;;;;;13.00;13.00;;;;;;;;5043637;28;8849;-71
2023/02/20 14:10:27;;;;;;;;;9.50;9.50;;;;;;;;5035878;28;8889;-70
2023/02/20 14:13:00;;;;;;;;;12.00;12.00;;;;;;;;5038189;28;8893;-70
2023/02/20 14:15:31;;;;;;;;;16.00;14.50;;;;;;;;5038309;28;8965;-70
2023/02/20 14:17:59;;;;;;;;;8.50;8.50;;;;;;;;5035354;28;8863;-70
2023/02/20 14:20:32;;;;;;;;;14.00;14.00;;;;;;;;5020421;28;8907;-71
2023/02/20 14:23:11;;;;;;;;;13.75;13.75;;;;;;;;5035168;28;8840;-70
2023/02/20 14:25:38;;;;;;;;;15.33;12.67;;;;;;;;5041398;28;8956;-70
2023/02/20 14:28:13;;;;;;;;;8.75;8.75;;;;;;;;5040466;28;8856;-70
2023/02/20 14:30:41;;;;;;;;;10.50;10.50;;;;;;;;5039313;28;8812;-71
2023/02/20 14:33:24;;;;;;;;;14.50;13.25;;;;;;;;5037416;28;8905;-70
2023/02/20 14:36:24;;;;;;;;;16.75;15.50;;;;;;;;5048343;28;8853;-71
2023/02/20 14:39:07;;;;;;;;;11.50;11.50;;;;;;;;5039706;28;8854;-70
2023/02/20 14:41:34;;;;;;;;;15.25;15.25;;;;;;;;5037089;28;8844;-70
2023/02/20 14:44:06;;;;;;;;;13.50;13.50;;;;;;;;5038769;28;8858;-71
2023/02/20 14:46:35;;;;;;;;;14.25;14.25;;;;;;;;5027347;28;8840;-70
2023/02/20 14:49:07;;;;;;;;;18.00;16.00;;;;;;;;5042617;28;8860;-71
2023/02/20 14:51:36;;;;;;;;;13.75;13.75;;;;;;;;5038008;28;8858;-71
2023/02/20 14:54:17;;;;;;;;;18.75;17.25;;;;;;;;5046369;28;8867;-71
2023/02/20 14:56:45;;;;;;;;;15.75;15.75;;;;;;;;5044014;28;8851;-70
2023/02/20 14:59:39;;;;;;;;;18.00;16.00;;;;;;;;5038964;28;8853;-71
2023/02/20 15:02:16;;;;;;;;;15.50;14.50;;;;;;;;5016269;28;8825;-71
2023/02/20 15:04:48;;;;;;;;;17.25;14.00;;;;;;;;5036837;28;8840;-71